sensor_id;sensor_type;location;lat;lon;timestamp;P1;durP1;ratioP1;P2;durP2;ratioP2
35056;SDS011;21241;51.828;19.574;2022-12-04T00:00:34;93.90;;;56.20;;
35056;SDS011;21241;51.828;19.574;2022-12-04T00:03:19;96.40;;;55.70;;
35056;SDS011;21241;51.828;19.574;2022-12-04T00:05:47;98.10;;;54.80;;
35056;SDS011;21241;51.828;19.574;2022-12-04T00:08:15;93.80;;;55.90;;
35056;SDS011;21241;51.828;19.574;2022-12-04T00:10:42;94.50;;;53.80;;
35056;SDS011;21241;51.828;19.574;2022-12-04T00:13:10;84.00;;;49.00;;
35056;SDS011;21241;51.828;19.574;2022-12-04T00:15:41;84.30;;;48.40;;
35056;SDS011;21241;51.828;19.574;2022-12-04T00:18:09;87.20;;;50.40;;
35056;SDS011;21241;51.828;19.574;2022-12-04T00:20:40;85.80;;;52.90;;
35056;SDS011;21241;51.828;19.574;2022-12-04T00:23:07;82.30;;;47.80;;
35056;SDS011;21241;51.828;19.574;2022-12-04T00:25:35;82.40;;;48.60;;
35056;SDS011;21241;51.828;19.574;2022-12-04T00:28:08;80.50;;;49.10;;
35056;SDS011;21241;51.828;19.574;2022-12-04T00:30:39;78.40;;;45.90;;
35056;SDS011;21241;51.828;19.574;2022-12-04T00:33:07;81.00;;;46.80;;
35056;SDS011;21241;51.828;19.574;2022-12-04T00:35:35;77.20;;;46.60;;
35056;SDS011;21241;51.828;19.574;2022-12-04T00:38:03;81.90;;;49.40;;
35056;SDS011;21241;51.828;19.574;2022-12-04T00:40:30;83.90;;;47.90;;
35056;SDS011;21241;51.828;19.574;2022-12-04T00:42:58;73.80;;;44.90;;
35056;SDS011;21241;51.828;19.574;2022-12-04T00:45:26;81.40;;;47.90;;
35056;SDS011;21241;51.828;19.574;2022-12-04T00:47:54;77.10;;;45.60;;
35056;SDS011;21241;51.828;19.574;2022-12-04T00:50:21;76.90;;;45.10;;
35056;SDS011;21241;51.828;19.574;2022-12-04T00:52:49;78.50;;;47.60;;
35056;SDS011;21241;51.828;19.574;2022-12-04T00:55:17;83.20;;;46.70;;
35056;SDS011;21241;51.828;19.574;2022-12-04T00:57:44;80.90;;;46.50;;
35056;SDS011;21241;51.828;19.574;2022-12-04T01:00:13;76.50;;;46.50;;
35056;SDS011;21241;51.828;19.574;2022-12-04T01:02:41;76.10;;;45.20;;
35056;SDS011;21241;51.828;19.574;2022-12-04T01:05:08;79.90;;;44.90;;
35056;SDS011;21241;51.828;19.574;2022-12-04T01:07:36;72.80;;;46.20;;
35056;SDS011;21241;51.828;19.574;2022-12-04T01:10:06;69.10;;;42.60;;
35056;SDS011;21241;51.828;19.574;2022-12-04T01:12:35;72.60;;;42.40;;
35056;SDS011;21241;51.828;19.574;2022-12-04T01:15:03;77.00;;;46.60;;
35056;SDS011;21241;51.828;19.574;2022-12-04T01:17:32;74.30;;;45.70;;
35056;SDS011;21241;51.828;19.574;2022-12-04T01:19:59;76.00;;;47.00;;
35056;SDS011;21241;51.828;19.574;2022-12-04T01:22:27;75.10;;;43.20;;
35056;SDS011;21241;51.828;19.574;2022-12-04T01:24:55;75.30;;;46.50;;
35056;SDS011;21241;51.828;19.574;2022-12-04T01:27:23;66.70;;;40.60;;
35056;SDS011;21241;51.828;19.574;2022-12-04T01:29:51;74.90;;;44.10;;
35056;SDS011;21241;51.828;19.574;2022-12-04T01:32:18;69.40;;;41.60;;
35056;SDS011;21241;51.828;19.574;2022-12-04T01:34:46;73.90;;;44.30;;
35056;SDS011;21241;51.828;19.574;2022-12-04T01:37:14;71.50;;;43.70;;
35056;SDS011;21241;51.828;19.574;2022-12-04T01:39:41;69.30;;;41.10;;
35056;SDS011;21241;51.828;19.574;2022-12-04T01:42:11;74.40;;;43.70;;
35056;SDS011;21241;51.828;19.574;2022-12-04T01:44:41;72.90;;;43.40;;
35056;SDS011;21241;51.828;19.574;2022-12-04T01:47:10;73.20;;;40.90;;
35056;SDS011;21241;51.828;19.574;2022-12-04T01:49:39;70.30;;;40.40;;
35056;SDS011;21241;51.828;19.574;2022-12-04T01:52:14;71.00;;;41.50;;
35056;SDS011;21241;51.828;19.574;2022-12-04T01:54:46;77.50;;;44.50;;
35056;SDS011;21241;51.828;19.574;2022-12-04T01:57:17;76.40;;;45.40;;
35056;SDS011;21241;51.828;19.574;2022-12-04T01:59:50;75.30;;;43.40;;
35056;SDS011;21241;51.828;19.574;2022-12-04T02:02:31;73.20;;;41.90;;
35056;SDS011;21241;51.828;19.574;2022-12-04T02:05:03;74.10;;;44.10;;
35056;SDS011;21241;51.828;19.574;2022-12-04T02:07:37;73.20;;;42.00;;
35056;SDS011;21241;51.828;19.574;2022-12-04T02:10:07;74.40;;;44.10;;
35056;SDS011;21241;51.828;19.574;2022-12-04T02:12:44;64.70;;;38.70;;
35056;SDS011;21241;51.828;19.574;2022-12-04T02:15:20;69.60;;;40.20;;
35056;SDS011;21241;51.828;19.574;2022-12-04T02:18:38;71.50;;;40.90;;
35056;SDS011;21241;51.828;19.574;2022-12-04T02:31:18;71.70;;;41.20;;
35056;SDS011;21241;51.828;19.574;2022-12-04T02:33:53;76.10;;;43.10;;
35056;SDS011;21241;51.828;19.574;2022-12-04T02:36:29;80.90;;;47.00;;
35056;SDS011;21241;51.828;19.574;2022-12-04T02:39:02;83.90;;;46.10;;
35056;SDS011;21241;51.828;19.574;2022-12-04T02:41:43;80.20;;;45.00;;
35056;SDS011;21241;51.828;19.574;2022-12-04T02:44:20;79.70;;;46.10;;
35056;SDS011;21241;51.828;19.574;2022-12-04T02:46:52;78.70;;;46.80;;
35056;SDS011;21241;51.828;19.574;2022-12-04T02:49:28;81.40;;;43.90;;
35056;SDS011;21241;51.828;19.574;2022-12-04T02:51:59;82.60;;;45.80;;
35056;SDS011;21241;51.828;19.574;2022-12-04T02:54:32;77.70;;;44.10;;
35056;SDS011;21241;51.828;19.574;2022-12-04T02:57:02;78.80;;;44.80;;
35056;SDS011;21241;51.828;19.574;2022-12-04T02:59:38;79.70;;;45.10;;
35056;SDS011;21241;51.828;19.574;2022-12-04T03:02:09;76.80;;;45.50;;
35056;SDS011;21241;51.828;19.574;2022-12-04T03:04:40;76.00;;;45.30;;
35056;SDS011;21241;51.828;19.574;2022-12-04T03:07:10;77.00;;;43.70;;
35056;SDS011;21241;51.828;19.574;2022-12-04T03:09:42;78.40;;;46.40;;
35056;SDS011;21241;51.828;19.574;2022-12-04T03:12:14;75.50;;;43.70;;
35056;SDS011;21241;51.828;19.574;2022-12-04T03:14:45;71.40;;;43.40;;
35056;SDS011;21241;51.828;19.574;2022-12-04T03:17:18;64.50;;;39.00;;
35056;SDS011;21241;51.828;19.574;2022-12-04T03:19:50;68.90;;;42.60;;
35056;SDS011;21241;51.828;19.574;2022-12-04T03:22:22;76.40;;;45.70;;
35056;SDS011;21241;51.828;19.574;2022-12-04T03:24:51;75.10;;;44.40;;
35056;SDS011;21241;51.828;19.574;2022-12-04T03:27:44;66.70;;;39.80;;
35056;SDS011;21241;51.828;19.574;2022-12-04T03:30:21;71.10;;;42.40;;
35056;SDS011;21241;51.828;19.574;2022-12-04T03:35:51;70.10;;;42.60;;
35056;SDS011;21241;51.828;19.574;2022-12-04T03:38:26;64.30;;;40.60;;
35056;SDS011;21241;51.828;19.574;2022-12-04T03:41:23;68.10;;;40.40;;
35056;SDS011;21241;51.828;19.574;2022-12-04T03:46:40;67.50;;;41.70;;
35056;SDS011;21241;51.828;19.574;2022-12-04T03:49:19;68.70;;;43.10;;
35056;SDS011;21241;51.828;19.574;2022-12-04T03:52:03;63.10;;;40.50;;
35056;SDS011;21241;51.828;19.574;2022-12-04T03:54:37;67.10;;;43.00;;
35056;SDS011;21241;51.828;19.574;2022-12-04T03:57:13;66.20;;;41.30;;
35056;SDS011;21241;51.828;19.574;2022-12-04T04:00:06;66.20;;;43.40;;
35056;SDS011;21241;51.828;19.574;2022-12-04T04:02:35;72.40;;;44.90;;
35056;SDS011;21241;51.828;19.574;2022-12-04T04:05:07;67.80;;;43.80;;
35056;SDS011;21241;51.828;19.574;2022-12-04T04:07:38;69.60;;;43.70;;
35056;SDS011;21241;51.828;19.574;2022-12-04T04:10:12;72.00;;;46.30;;
35056;SDS011;21241;51.828;19.574;2022-12-04T04:12:48;71.90;;;43.50;;
35056;SDS011;21241;51.828;19.574;2022-12-04T04:15:40;71.60;;;42.40;;
35056;SDS011;21241;51.828;19.574;2022-12-04T04:18:30;73.90;;;43.90;;
35056;SDS011;21241;51.828;19.574;2022-12-04T04:21:20;73.90;;;46.40;;
35056;SDS011;21241;51.828;19.574;2022-12-04T04:24:09;71.70;;;45.90;;
35056;SDS011;21241;51.828;19.574;2022-12-04T04:26:45;76.40;;;46.60;;
35056;SDS011;21241;51.828;19.574;2022-12-04T04:29:13;76.80;;;45.10;;
35056;SDS011;21241;51.828;19.574;2022-12-04T04:31:42;66.30;;;41.80;;
35056;SDS011;21241;51.828;19.574;2022-12-04T04:37:20;70.50;;;43.50;;
35056;SDS011;21241;51.828;19.574;2022-12-04T04:40:13;69.40;;;41.10;;
35056;SDS011;21241;51.828;19.574;2022-12-04T04:45:30;75.30;;;44.10;;
35056;SDS011;21241;51.828;19.574;2022-12-04T04:48:02;72.10;;;43.60;;
35056;SDS011;21241;51.828;19.574;2022-12-04T04:50:33;74.50;;;43.60;;
35056;SDS011;21241;51.828;19.574;2022-12-04T04:53:03;73.20;;;43.20;;
35056;SDS011;21241;51.828;19.574;2022-12-04T04:55:33;72.40;;;42.40;;
35056;SDS011;21241;51.828;19.574;2022-12-04T04:58:07;79.00;;;43.30;;
35056;SDS011;21241;51.828;19.574;2022-12-04T05:00:36;69.70;;;40.30;;
35056;SDS011;21241;51.828;19.574;2022-12-04T05:03:05;65.80;;;40.80;;
35056;SDS011;21241;51.828;19.574;2022-12-04T05:05:33;70.30;;;43.50;;
35056;SDS011;21241;51.828;19.574;2022-12-04T05:08:01;73.80;;;43.40;;
35056;SDS011;21241;51.828;19.574;2022-12-04T05:10:28;67.50;;;42.10;;
35056;SDS011;21241;51.828;19.574;2022-12-04T05:12:56;73.60;;;44.40;;
35056;SDS011;21241;51.828;19.574;2022-12-04T05:15:24;67.20;;;40.70;;
35056;SDS011;21241;51.828;19.574;2022-12-04T05:17:51;74.30;;;44.40;;
35056;SDS011;21241;51.828;19.574;2022-12-04T05:20:19;70.70;;;44.00;;
35056;SDS011;21241;51.828;19.574;2022-12-04T05:22:47;72.00;;;43.80;;
35056;SDS011;21241;51.828;19.574;2022-12-04T05:25:14;71.40;;;43.80;;
35056;SDS011;21241;51.828;19.574;2022-12-04T05:27:42;73.90;;;43.80;;
35056;SDS011;21241;51.828;19.574;2022-12-04T05:30:10;76.60;;;45.30;;
35056;SDS011;21241;51.828;19.574;2022-12-04T05:32:38;70.70;;;44.00;;
35056;SDS011;21241;51.828;19.574;2022-12-04T05:35:06;75.90;;;45.10;;
35056;SDS011;21241;51.828;19.574;2022-12-04T05:37:39;78.20;;;46.10;;
35056;SDS011;21241;51.828;19.574;2022-12-04T05:40:07;74.30;;;43.20;;
35056;SDS011;21241;51.828;19.574;2022-12-04T05:42:35;66.00;;;36.30;;
35056;SDS011;21241;51.828;19.574;2022-12-04T05:45:03;74.20;;;41.90;;
35056;SDS011;21241;51.828;19.574;2022-12-04T05:47:31;66.60;;;39.50;;
35056;SDS011;21241;51.828;19.574;2022-12-04T05:49:59;75.30;;;44.10;;
35056;SDS011;21241;51.828;19.574;2022-12-04T05:52:26;68.70;;;39.90;;
35056;SDS011;21241;51.828;19.574;2022-12-04T05:54:54;65.60;;;40.00;;
35056;SDS011;21241;51.828;19.574;2022-12-04T05:57:21;63.80;;;39.40;;
35056;SDS011;21241;51.828;19.574;2022-12-04T05:59:52;61.20;;;37.80;;
35056;SDS011;21241;51.828;19.574;2022-12-04T06:02:20;67.80;;;41.10;;
35056;SDS011;21241;51.828;19.574;2022-12-04T06:04:48;68.90;;;41.60;;
35056;SDS011;21241;51.828;19.574;2022-12-04T06:07:15;69.80;;;41.60;;
35056;SDS011;21241;51.828;19.574;2022-12-04T06:09:43;62.90;;;37.70;;
35056;SDS011;21241;51.828;19.574;2022-12-04T06:12:10;72.50;;;42.00;;
35056;SDS011;21241;51.828;19.574;2022-12-04T06:14:38;66.30;;;38.10;;
35056;SDS011;21241;51.828;19.574;2022-12-04T06:17:06;68.70;;;41.70;;
35056;SDS011;21241;51.828;19.574;2022-12-04T06:19:34;71.40;;;42.00;;
35056;SDS011;21241;51.828;19.574;2022-12-04T06:22:02;65.60;;;41.60;;
35056;SDS011;21241;51.828;19.574;2022-12-04T06:24:30;63.80;;;38.60;;
35056;SDS011;21241;51.828;19.574;2022-12-04T06:26:57;61.00;;;37.10;;
35056;SDS011;21241;51.828;19.574;2022-12-04T06:29:45;61.30;;;36.80;;
35056;SDS011;21241;51.828;19.574;2022-12-04T06:32:13;64.20;;;39.30;;
35056;SDS011;21241;51.828;19.574;2022-12-04T06:34:48;66.20;;;40.30;;
35056;SDS011;21241;51.828;19.574;2022-12-04T06:37:20;63.50;;;40.40;;
35056;SDS011;21241;51.828;19.574;2022-12-04T06:39:49;55.90;;;33.50;;
35056;SDS011;21241;51.828;19.574;2022-12-04T06:42:17;60.00;;;38.00;;
35056;SDS011;21241;51.828;19.574;2022-12-04T06:44:45;62.10;;;38.70;;
35056;SDS011;21241;51.828;19.574;2022-12-04T06:47:12;59.00;;;38.50;;
35056;SDS011;21241;51.828;19.574;2022-12-04T06:49:40;61.10;;;36.60;;
35056;SDS011;21241;51.828;19.574;2022-12-04T06:52:08;62.10;;;37.50;;
35056;SDS011;21241;51.828;19.574;2022-12-04T06:54:36;58.00;;;36.60;;
35056;SDS011;21241;51.828;19.574;2022-12-04T06:57:03;57.70;;;35.40;;
35056;SDS011;21241;51.828;19.574;2022-12-04T06:59:31;60.00;;;37.50;;
35056;SDS011;21241;51.828;19.574;2022-12-04T07:02:00;56.30;;;34.10;;
35056;SDS011;21241;51.828;19.574;2022-12-04T07:04:28;55.50;;;35.60;;
35056;SDS011;21241;51.828;19.574;2022-12-04T07:06:55;55.50;;;35.70;;
35056;SDS011;21241;51.828;19.574;2022-12-04T07:09:23;51.20;;;35.20;;
35056;SDS011;21241;51.828;19.574;2022-12-04T07:11:51;51.30;;;32.40;;
35056;SDS011;21241;51.828;19.574;2022-12-04T07:14:21;57.60;;;37.90;;
35056;SDS011;21241;51.828;19.574;2022-12-04T07:16:49;50.30;;;30.40;;
35056;SDS011;21241;51.828;19.574;2022-12-04T07:19:16;55.40;;;37.20;;
35056;SDS011;21241;51.828;19.574;2022-12-04T07:21:44;56.50;;;35.40;;
35056;SDS011;21241;51.828;19.574;2022-12-04T07:24:12;54.90;;;36.00;;
35056;SDS011;21241;51.828;19.574;2022-12-04T07:26:42;57.10;;;36.40;;
35056;SDS011;21241;51.828;19.574;2022-12-04T07:29:10;55.60;;;38.40;;
35056;SDS011;21241;51.828;19.574;2022-12-04T07:31:37;63.30;;;39.50;;
35056;SDS011;21241;51.828;19.574;2022-12-04T07:34:05;61.80;;;38.20;;
35056;SDS011;21241;51.828;19.574;2022-12-04T07:36:33;63.10;;;38.40;;
35056;SDS011;21241;51.828;19.574;2022-12-04T07:39:01;60.90;;;37.30;;
35056;SDS011;21241;51.828;19.574;2022-12-04T07:41:29;67.40;;;42.60;;
35056;SDS011;21241;51.828;19.574;2022-12-04T07:43:56;66.20;;;39.20;;
35056;SDS011;21241;51.828;19.574;2022-12-04T07:46:25;70.60;;;41.20;;
35056;SDS011;21241;51.828;19.574;2022-12-04T07:48:54;68.10;;;40.70;;
35056;SDS011;21241;51.828;19.574;2022-12-04T07:51:24;73.90;;;42.70;;
35056;SDS011;21241;51.828;19.574;2022-12-04T07:53:53;69.30;;;41.60;;
35056;SDS011;21241;51.828;19.574;2022-12-04T07:56:22;64.30;;;39.00;;
35056;SDS011;21241;51.828;19.574;2022-12-04T07:58:49;65.90;;;40.20;;
35056;SDS011;21241;51.828;19.574;2022-12-04T08:01:18;66.80;;;40.10;;
35056;SDS011;21241;51.828;19.574;2022-12-04T08:03:49;64.00;;;38.20;;
35056;SDS011;21241;51.828;19.574;2022-12-04T08:06:18;65.30;;;38.40;;
35056;SDS011;21241;51.828;19.574;2022-12-04T08:08:48;67.50;;;39.60;;
35056;SDS011;21241;51.828;19.574;2022-12-04T08:11:17;62.80;;;39.80;;
35056;SDS011;21241;51.828;19.574;2022-12-04T08:13:46;67.00;;;40.10;;
35056;SDS011;21241;51.828;19.574;2022-12-04T08:16:14;65.70;;;39.20;;
35056;SDS011;21241;51.828;19.574;2022-12-04T08:18:42;67.30;;;40.90;;
35056;SDS011;21241;51.828;19.574;2022-12-04T08:21:15;70.50;;;43.20;;
35056;SDS011;21241;51.828;19.574;2022-12-04T08:23:46;64.70;;;39.10;;
35056;SDS011;21241;51.828;19.574;2022-12-04T08:26:16;63.90;;;39.90;;
35056;SDS011;21241;51.828;19.574;2022-12-04T08:28:44;68.20;;;42.50;;
35056;SDS011;21241;51.828;19.574;2022-12-04T08:31:14;68.10;;;41.60;;
35056;SDS011;21241;51.828;19.574;2022-12-04T08:33:46;68.80;;;39.10;;
35056;SDS011;21241;51.828;19.574;2022-12-04T08:36:16;67.60;;;41.50;;
35056;SDS011;21241;51.828;19.574;2022-12-04T08:38:46;66.60;;;42.10;;
35056;SDS011;21241;51.828;19.574;2022-12-04T08:41:15;72.00;;;42.40;;
35056;SDS011;21241;51.828;19.574;2022-12-04T08:43:44;70.90;;;43.30;;
35056;SDS011;21241;51.828;19.574;2022-12-04T08:46:13;55.80;;;33.70;;
35056;SDS011;21241;51.828;19.574;2022-12-04T08:48:43;70.10;;;43.40;;
35056;SDS011;21241;51.828;19.574;2022-12-04T08:51:12;67.90;;;42.30;;
35056;SDS011;21241;51.828;19.574;2022-12-04T08:53:40;71.20;;;43.30;;
35056;SDS011;21241;51.828;19.574;2022-12-04T08:56:08;67.70;;;42.90;;
35056;SDS011;21241;51.828;19.574;2022-12-04T08:58:37;71.90;;;45.30;;
35056;SDS011;21241;51.828;19.574;2022-12-04T09:03:33;70.20;;;45.20;;
35056;SDS011;21241;51.828;19.574;2022-12-04T09:06:02;77.20;;;46.90;;
35056;SDS011;21241;51.828;19.574;2022-12-04T09:08:31;70.60;;;45.90;;
35056;SDS011;21241;51.828;19.574;2022-12-04T09:11:03;69.00;;;40.70;;
35056;SDS011;21241;51.828;19.574;2022-12-04T09:13:35;73.70;;;45.90;;
35056;SDS011;21241;51.828;19.574;2022-12-04T09:16:04;68.20;;;42.30;;
35056;SDS011;21241;51.828;19.574;2022-12-04T09:18:35;71.90;;;44.30;;
35056;SDS011;21241;51.828;19.574;2022-12-04T09:21:04;68.40;;;45.10;;
35056;SDS011;21241;51.828;19.574;2022-12-04T09:23:34;73.50;;;48.10;;
35056;SDS011;21241;51.828;19.574;2022-12-04T09:26:02;73.90;;;48.90;;
35056;SDS011;21241;51.828;19.574;2022-12-04T09:28:31;71.00;;;44.10;;
35056;SDS011;21241;51.828;19.574;2022-12-04T09:31:01;68.90;;;39.30;;
35056;SDS011;21241;51.828;19.574;2022-12-04T09:33:30;64.20;;;40.10;;
35056;SDS011;21241;51.828;19.574;2022-12-04T09:35:58;68.50;;;40.30;;
35056;SDS011;21241;51.828;19.574;2022-12-04T09:38:27;73.20;;;46.50;;
35056;SDS011;21241;51.828;19.574;2022-12-04T09:43:46;71.00;;;45.60;;
35056;SDS011;21241;51.828;19.574;2022-12-04T09:46:19;74.30;;;47.80;;
35056;SDS011;21241;51.828;19.574;2022-12-04T09:48:56;73.30;;;46.90;;
35056;SDS011;21241;51.828;19.574;2022-12-04T09:51:25;69.30;;;43.80;;
35056;SDS011;21241;51.828;19.574;2022-12-04T09:53:55;69.40;;;45.60;;
35056;SDS011;21241;51.828;19.574;2022-12-04T09:56:26;73.50;;;46.20;;
35056;SDS011;21241;51.828;19.574;2022-12-04T10:01:50;70.50;;;45.20;;
35056;SDS011;21241;51.828;19.574;2022-12-04T10:04:37;68.40;;;46.20;;
35056;SDS011;21241;51.828;19.574;2022-12-04T10:07:12;70.40;;;44.70;;
35056;SDS011;21241;51.828;19.574;2022-12-04T10:25:59;69.20;;;45.30;;
35056;SDS011;21241;51.828;19.574;2022-12-04T10:28:33;67.20;;;44.30;;
35056;SDS011;21241;51.828;19.574;2022-12-04T10:31:05;72.80;;;47.70;;
35056;SDS011;21241;51.828;19.574;2022-12-04T10:33:37;66.70;;;44.30;;
35056;SDS011;21241;51.828;19.574;2022-12-04T10:36:15;74.40;;;49.50;;
35056;SDS011;21241;51.828;19.574;2022-12-04T10:38:52;70.40;;;45.30;;
35056;SDS011;21241;51.828;19.574;2022-12-04T10:42:13;69.40;;;46.80;;
35056;SDS011;21241;51.828;19.574;2022-12-04T10:44:18;68.10;;;46.20;;
35056;SDS011;21241;51.828;19.574;2022-12-04T10:46:46;74.30;;;49.00;;
35056;SDS011;21241;51.828;19.574;2022-12-04T10:51:52;71.90;;;49.10;;
35056;SDS011;21241;51.828;19.574;2022-12-04T10:54:26;70.80;;;48.40;;
35056;SDS011;21241;51.828;19.574;2022-12-04T10:57:04;67.30;;;44.80;;
35056;SDS011;21241;51.828;19.574;2022-12-04T10:59:33;71.80;;;49.90;;
35056;SDS011;21241;51.828;19.574;2022-12-04T11:02:10;77.30;;;50.20;;
35056;SDS011;21241;51.828;19.574;2022-12-04T11:04:43;72.10;;;49.00;;
35056;SDS011;21241;51.828;19.574;2022-12-04T11:07:28;70.90;;;49.40;;
35056;SDS011;21241;51.828;19.574;2022-12-04T11:13:05;74.70;;;46.60;;
35056;SDS011;21241;51.828;19.574;2022-12-04T11:18:22;75.60;;;49.80;;
35056;SDS011;21241;51.828;19.574;2022-12-04T11:20:56;67.30;;;44.90;;
35056;SDS011;21241;51.828;19.574;2022-12-04T11:23:26;69.50;;;49.50;;
35056;SDS011;21241;51.828;19.574;2022-12-04T11:25:57;63.10;;;43.80;;
35056;SDS011;21241;51.828;19.574;2022-12-04T11:28:32;62.30;;;41.80;;
35056;SDS011;21241;51.828;19.574;2022-12-04T11:31:09;60.00;;;43.40;;
35056;SDS011;21241;51.828;19.574;2022-12-04T11:33:43;58.70;;;40.70;;
35056;SDS011;21241;51.828;19.574;2022-12-04T11:36:21;58.70;;;42.80;;
35056;SDS011;21241;51.828;19.574;2022-12-04T11:38:50;54.50;;;37.20;;
35056;SDS011;21241;51.828;19.574;2022-12-04T11:41:25;55.60;;;39.00;;
35056;SDS011;21241;51.828;19.574;2022-12-04T11:43:54;55.10;;;40.00;;
35056;SDS011;21241;51.828;19.574;2022-12-04T11:46:28;56.50;;;42.00;;
35056;SDS011;21241;51.828;19.574;2022-12-04T11:48:57;58.60;;;42.10;;
35056;SDS011;21241;51.828;19.574;2022-12-04T12:05:42;57.80;;;42.60;;
35056;SDS011;21241;51.828;19.574;2022-12-04T12:11:31;53.20;;;41.00;;
35056;SDS011;21241;51.828;19.574;2022-12-04T12:19:54;57.30;;;42.80;;
35056;SDS011;21241;51.828;19.574;2022-12-04T12:22:33;60.00;;;42.70;;
35056;SDS011;21241;51.828;19.574;2022-12-04T12:25:14;61.30;;;45.50;;
35056;SDS011;21241;51.828;19.574;2022-12-04T12:33:35;63.70;;;46.50;;
35056;SDS011;21241;51.828;19.574;2022-12-04T12:36:10;64.00;;;45.50;;
35056;SDS011;21241;51.828;19.574;2022-12-04T12:38:46;65.60;;;49.60;;
35056;SDS011;21241;51.828;19.574;2022-12-04T12:41:16;72.10;;;52.10;;
35056;SDS011;21241;51.828;19.574;2022-12-04T12:43:47;73.10;;;53.10;;
35056;SDS011;21241;51.828;19.574;2022-12-04T12:46:36;70.60;;;52.20;;
35056;SDS011;21241;51.828;19.574;2022-12-04T12:49:12;70.80;;;50.70;;
35056;SDS011;21241;51.828;19.574;2022-12-04T12:51:57;74.40;;;53.00;;
35056;SDS011;21241;51.828;19.574;2022-12-04T12:54:50;70.20;;;46.10;;
35056;SDS011;21241;51.828;19.574;2022-12-04T12:57:26;72.60;;;50.40;;
35056;SDS011;21241;51.828;19.574;2022-12-04T13:00:12;70.70;;;49.00;;
35056;SDS011;21241;51.828;19.574;2022-12-04T13:02:46;73.40;;;52.00;;
35056;SDS011;21241;51.828;19.574;2022-12-04T13:05:19;71.50;;;49.40;;
35056;SDS011;21241;51.828;19.574;2022-12-04T13:08:02;64.30;;;48.10;;
35056;SDS011;21241;51.828;19.574;2022-12-04T13:10:35;69.60;;;49.70;;
35056;SDS011;21241;51.828;19.574;2022-12-04T13:13:13;70.60;;;52.60;;
35056;SDS011;21241;51.828;19.574;2022-12-04T13:15:54;70.40;;;49.30;;
35056;SDS011;21241;51.828;19.574;2022-12-04T13:18:25;72.90;;;53.20;;
35056;SDS011;21241;51.828;19.574;2022-12-04T13:20:57;71.20;;;50.90;;
35056;SDS011;21241;51.828;19.574;2022-12-04T13:29:12;65.70;;;48.60;;
35056;SDS011;21241;51.828;19.574;2022-12-04T13:37:37;78.50;;;54.50;;
35056;SDS011;21241;51.828;19.574;2022-12-04T13:42:41;73.60;;;52.50;;
35056;SDS011;21241;51.828;19.574;2022-12-04T13:45:10;72.80;;;51.10;;
35056;SDS011;21241;51.828;19.574;2022-12-04T13:47:39;68.00;;;50.80;;
35056;SDS011;21241;51.828;19.574;2022-12-04T13:50:20;68.10;;;48.60;;
35056;SDS011;21241;51.828;19.574;2022-12-04T13:52:51;61.90;;;46.10;;
35056;SDS011;21241;51.828;19.574;2022-12-04T14:00:38;57.60;;;42.80;;
35056;SDS011;21241;51.828;19.574;2022-12-04T14:06:19;56.00;;;41.00;;
35056;SDS011;21241;51.828;19.574;2022-12-04T14:08:52;53.70;;;40.60;;
35056;SDS011;21241;51.828;19.574;2022-12-04T14:11:25;59.00;;;45.90;;
35056;SDS011;21241;51.828;19.574;2022-12-04T14:13:54;54.10;;;41.70;;
35056;SDS011;21241;51.828;19.574;2022-12-04T14:16:46;51.60;;;41.40;;
35056;SDS011;21241;51.828;19.574;2022-12-04T14:19:24;56.00;;;45.40;;
35056;SDS011;21241;51.828;19.574;2022-12-04T14:21:54;56.10;;;45.70;;
35056;SDS011;21241;51.828;19.574;2022-12-04T14:24:29;58.30;;;47.10;;
35056;SDS011;21241;51.828;19.574;2022-12-04T14:27:03;56.90;;;45.90;;
35056;SDS011;21241;51.828;19.574;2022-12-04T14:29:57;58.10;;;47.50;;
35056;SDS011;21241;51.828;19.574;2022-12-04T14:32:26;63.70;;;52.30;;
35056;SDS011;21241;51.828;19.574;2022-12-04T14:34:55;61.30;;;49.50;;
35056;SDS011;21241;51.828;19.574;2022-12-04T14:37:27;60.90;;;46.80;;
35056;SDS011;21241;51.828;19.574;2022-12-04T14:39:58;58.80;;;46.90;;
35056;SDS011;21241;51.828;19.574;2022-12-04T14:42:30;60.80;;;47.60;;
35056;SDS011;21241;51.828;19.574;2022-12-04T14:45:19;59.10;;;45.40;;
35056;SDS011;21241;51.828;19.574;2022-12-04T14:50:28;61.10;;;49.40;;
35056;SDS011;21241;51.828;19.574;2022-12-04T14:53:22;61.50;;;49.00;;
35056;SDS011;21241;51.828;19.574;2022-12-04T14:58:48;57.60;;;46.20;;
35056;SDS011;21241;51.828;19.574;2022-12-04T15:01:27;58.00;;;45.30;;
35056;SDS011;21241;51.828;19.574;2022-12-04T15:04:00;56.70;;;46.40;;
35056;SDS011;21241;51.828;19.574;2022-12-04T15:06:40;53.50;;;44.80;;
35056;SDS011;21241;51.828;19.574;2022-12-04T15:09:18;52.30;;;45.20;;
35056;SDS011;21241;51.828;19.574;2022-12-04T15:12:16;55.00;;;44.50;;
35056;SDS011;21241;51.828;19.574;2022-12-04T15:15:23;54.70;;;45.10;;
35056;SDS011;21241;51.828;19.574;2022-12-04T15:17:56;55.40;;;44.50;;
35056;SDS011;21241;51.828;19.574;2022-12-04T15:20:33;59.00;;;48.50;;
35056;SDS011;21241;51.828;19.574;2022-12-04T15:23:08;54.10;;;42.00;;
35056;SDS011;21241;51.828;19.574;2022-12-04T15:25:43;51.50;;;41.20;;
35056;SDS011;21241;51.828;19.574;2022-12-04T15:28:15;56.00;;;43.60;;
35056;SDS011;21241;51.828;19.574;2022-12-04T15:30:46;53.70;;;45.80;;
35056;SDS011;21241;51.828;19.574;2022-12-04T15:33:18;55.00;;;44.50;;
35056;SDS011;21241;51.828;19.574;2022-12-04T15:35:50;57.00;;;45.50;;
35056;SDS011;21241;51.828;19.574;2022-12-04T15:38:20;54.20;;;42.90;;
35056;SDS011;21241;51.828;19.574;2022-12-04T15:40:49;54.30;;;44.10;;
35056;SDS011;21241;51.828;19.574;2022-12-04T15:43:27;55.00;;;44.20;;
35056;SDS011;21241;51.828;19.574;2022-12-04T15:46:50;52.60;;;42.60;;
35056;SDS011;21241;51.828;19.574;2022-12-04T15:49:17;55.90;;;45.00;;
35056;SDS011;21241;51.828;19.574;2022-12-04T15:51:47;52.00;;;44.20;;
35056;SDS011;21241;51.828;19.574;2022-12-04T15:54:19;56.20;;;47.30;;
35056;SDS011;21241;51.828;19.574;2022-12-04T15:57:04;57.60;;;47.20;;
35056;SDS011;21241;51.828;19.574;2022-12-04T15:59:33;54.90;;;45.50;;
35056;SDS011;21241;51.828;19.574;2022-12-04T16:02:05;54.60;;;42.00;;
35056;SDS011;21241;51.828;19.574;2022-12-04T16:04:46;53.20;;;41.70;;
35056;SDS011;21241;51.828;19.574;2022-12-04T16:07:32;56.40;;;46.40;;
35056;SDS011;21241;51.828;19.574;2022-12-04T16:10:00;56.50;;;46.10;;
35056;SDS011;21241;51.828;19.574;2022-12-04T16:12:30;58.40;;;48.40;;
35056;SDS011;21241;51.828;19.574;2022-12-04T16:14:59;50.90;;;39.70;;
35056;SDS011;21241;51.828;19.574;2022-12-04T16:17:28;57.90;;;45.90;;
35056;SDS011;21241;51.828;19.574;2022-12-04T16:19:58;57.20;;;47.30;;
35056;SDS011;21241;51.828;19.574;2022-12-04T16:22:27;58.30;;;46.10;;
35056;SDS011;21241;51.828;19.574;2022-12-04T16:24:56;62.70;;;48.90;;
35056;SDS011;21241;51.828;19.574;2022-12-04T16:27:24;53.20;;;46.40;;
35056;SDS011;21241;51.828;19.574;2022-12-04T16:29:52;55.40;;;46.60;;